Time;durP1;ratioP1;P1;durP2;ratioP2;P2;SDS_P1;SDS_P2;PMS_P1;PMS_P2;Temp;Humidity;BMP_temperature;BMP_pressure;BME280_temperature;BME280_humidity;BME280_pressure;Samples;Min_cycle;Max_cycle;Signal;HPM_P1;HPM_P2
2023/11/20 00:01:59;;;;;;;0.30;0.30;;;10.50;99.90;;;;;;5034456;28;20479;-84
2023/11/20 00:04:25;;;;;;;0.32;0.32;;;10.40;99.90;;;;;;5017148;28;20095;-84
2023/11/20 00:06:50;;;;;;;0.40;0.40;;;10.50;99.90;;;;;;5040967;28;20533;-84
2023/11/20 00:09:16;;;;;;;0.30;0.30;;;10.50;99.90;;;;;;5040617;28;20039;-84
2023/11/20 00:11:42;;;;;;;0.30;0.30;;;10.50;99.90;;;;;;5008771;28;20075;-85
2023/11/20 00:14:08;;;;;;;0.40;0.40;;;10.50;99.90;;;;;;5025526;28;20119;-84
2023/11/20 00:16:34;;;;;;;;;;;10.60;99.90;;;;;;5018416;28;20080;-84
2023/11/20 00:19:00;;;;;;;0.30;0.30;;;10.60;99.90;;;;;;5037763;28;19963;-84
2023/11/20 00:21:25;;;;;;;0.30;0.30;;;10.60;99.90;;;;;;5016772;28;20052;-85
2023/11/20 00:23:52;;;;;;;0.30;0.30;;;10.70;99.90;;;;;;5021375;28;20037;-85
2023/11/20 00:26:18;;;;;;;0.30;0.30;;;10.60;99.90;;;;;;5022130;28;20053;-84
2023/11/20 00:28:43;;;;;;;0.40;0.40;;;10.70;99.90;;;;;;5023401;28;20067;-85
2023/11/20 00:31:17;;;;;;;0.28;0.28;;;10.70;99.90;;;;;;5056756;28;20047;-85
2023/11/20 00:33:43;;;;;;;0.30;0.30;;;10.70;99.90;;;;;;5015138;28;20044;-83
2023/11/20 00:36:09;;;;;;;;;;;10.70;99.90;;;;;;5028131;28;20036;-83
2023/11/20 00:38:35;;;;;;;0.30;0.30;;;10.70;99.90;;;;;;5025664;28;20305;-83
2023/11/20 00:41:02;;;;;;;;;;;10.70;99.90;;;;;;5047529;28;20045;-83
2023/11/20 00:43:28;;;;;;;0.30;0.30;;;10.70;99.90;;;;;;5021633;28;19920;-84
2023/11/20 00:45:55;;;;;;;0.40;0.40;;;10.70;99.90;;;;;;5041144;28;20049;-85
2023/11/20 00:48:21;;;;;;;0.30;0.30;;;10.70;99.90;;;;;;5018012;28;20072;-85
2023/11/20 00:50:47;;;;;;;0.63;0.63;;;10.70;99.90;;;;;;5010773;28;20076;-85
2023/11/20 00:53:12;;;;;;;0.20;0.20;;;10.70;99.90;;;;;;5006623;28;20556;-85
2023/11/20 00:55:38;;;;;;;0.30;0.30;;;10.80;99.90;;;;;;5019060;28;20079;-86
2023/11/20 00:58:04;;;;;;;0.30;0.30;;;10.70;99.90;;;;;;5026764;28;20064;-86
2023/11/20 01:00:30;;;;;;;;;;;10.70;99.90;;;;;;5041360;28;20497;-86
2023/11/20 01:02:56;;;;;;;0.40;0.40;;;10.80;99.90;;;;;;5022334;28;19943;-84
2023/11/20 01:05:22;;;;;;;0.20;0.20;;;10.80;99.90;;;;;;5028027;28;20041;-85
2023/11/20 01:07:54;;;;;;;0.30;0.30;;;10.80;99.90;;;;;;5021890;28;20327;-86
2023/11/20 01:10:19;;;;;;;0.20;0.20;;;10.80;99.90;;;;;;5000504;28;20042;-85
2023/11/20 01:12:46;;;;;;;0.30;0.30;;;10.80;99.90;;;;;;5014567;28;20052;-86
2023/11/20 01:15:12;;;;;;;0.20;0.20;;;10.80;99.90;;;;;;5020883;28;20056;-85
2023/11/20 01:17:39;;;;;;;0.30;0.30;;;10.80;99.90;;;;;;5010416;28;20037;-86
2023/11/20 01:20:05;;;;;;;0.20;0.20;;;10.80;99.90;;;;;;5040546;28;20041;-86
2023/11/20 01:22:31;;;;;;;1.27;1.27;;;10.80;99.90;;;;;;5026459;28;20047;-84
2023/11/20 01:24:57;;;;;;;0.22;0.22;;;10.80;99.90;;;;;;5040006;28;20102;-84
2023/11/20 01:27:24;;;;;;;;;;;10.80;99.90;;;;;;5009022;28;20037;-85
2023/11/20 01:29:50;;;;;;;0.30;0.30;;;10.80;99.90;;;;;;5037267;28;19924;-84
2023/11/20 01:32:17;;;;;;;0.40;0.40;;;10.80;99.90;;;;;;5020433;28;20068;-85
2023/11/20 01:34:43;;;;;;;0.30;0.30;;;10.80;99.90;;;;;;5046037;28;20469;-85
2023/11/20 01:37:09;;;;;;;0.28;0.28;;;10.80;99.90;;;;;;5043431;28;20128;-85
2023/11/20 01:39:41;;;;;;;0.30;0.30;;;10.80;99.90;;;;;;5044322;28;20402;-86
2023/11/20 01:42:07;;;;;;;0.20;0.20;;;10.80;99.90;;;;;;5004036;28;20571;-85
2023/11/20 01:44:32;;;;;;;0.30;0.30;;;10.70;99.90;;;;;;5041520;28;20403;-84
2023/11/20 01:47:00;;;;;;;0.25;0.25;;;10.80;99.90;;;;;;5034876;28;20042;-86
2023/11/20 01:49:28;;;;;;;0.30;0.30;;;10.70;99.90;;;;;;5039919;28;20465;-84
2023/11/20 01:51:53;;;;;;;0.20;0.20;;;10.70;99.90;;;;;;5037876;28;20440;-84
2023/11/20 01:54:20;;;;;;;0.25;0.25;;;10.70;99.90;;;;;;5024243;28;20041;-83
2023/11/20 01:56:47;;;;;;;0.28;0.28;;;10.80;99.90;;;;;;5020137;28;20041;-83
2023/11/20 01:59:16;;;;;;;;;;;10.70;99.90;;;;;;5015186;28;20645;-84
2023/11/20 02:01:42;;;;;;;0.30;0.30;;;10.80;99.90;;;;;;5032726;28;19924;-84
2023/11/20 02:04:08;;;;;;;;;;;10.80;99.90;;;;;;5034444;28;20044;-84
2023/11/20 02:06:34;;;;;;;0.20;0.20;;;10.80;99.90;;;;;;5038964;28;19921;-84
2023/11/20 02:09:00;;;;;;;0.20;0.20;;;10.80;99.90;;;;;;5036916;28;20626;-84
2023/11/20 02:11:27;;;;;;;0.75;0.60;;;10.80;99.90;;;;;;5020156;28;20067;-84
2023/11/20 02:13:54;;;;;;;0.28;0.28;;;10.80;99.90;;;;;;5038973;28;20064;-85
2023/11/20 02:16:20;;;;;;;0.30;0.30;;;10.80;99.90;;;;;;5024753;28;20076;-84
2023/11/20 02:18:47;;;;;;;0.30;0.30;;;10.80;99.90;;;;;;5035259;28;20033;-85
2023/11/20 02:21:14;;;;;;;0.30;0.30;;;10.90;99.90;;;;;;5041249;28;20083;-85
2023/11/20 02:23:40;;;;;;;0.20;0.20;;;10.90;99.90;;;;;;5020227;28;20186;-86
2023/11/20 02:26:28;;;;;;;0.43;0.43;;;10.90;99.90;;;;;;5039407;28;20036;-85
2023/11/20 02:29:03;;;;;;;0.30;0.30;;;10.90;99.90;;;;;;5038706;28;20038;-85
2023/11/20 02:31:32;;;;;;;0.30;0.30;;;10.90;99.90;;;;;;5041300;28;20129;-86
2023/11/20 02:34:00;;;;;;;0.30;0.30;;;10.90;99.90;;;;;;5027000;28;20041;-87
2023/11/20 02:36:26;;;;;;;0.30;0.30;;;10.90;99.90;;;;;;5032802;28;20036;-87
2023/11/20 02:38:52;;;;;;;0.30;0.30;;;10.90;99.90;;;;;;5029565;28;20430;-88
2023/11/20 02:41:18;;;;;;;;;;;10.90;99.90;;;;;;5015168;28;20045;-86
2023/11/20 02:43:44;;;;;;;0.30;0.30;;;10.90;99.90;;;;;;5050844;28;19970;-86
2023/11/20 02:46:10;;;;;;;0.60;0.60;;;10.80;99.90;;;;;;5033857;28;21572;-87
2023/11/20 02:48:35;;;;;;;0.40;0.40;;;10.90;99.90;;;;;;5039444;28;20051;-84
2023/11/20 02:51:05;;;;;;;0.30;0.30;;;10.90;99.90;;;;;;5010864;28;20494;-85
2023/11/20 02:53:31;;;;;;;0.30;0.30;;;10.90;99.90;;;;;;5014482;28;20052;-87
2023/11/20 02:55:57;;;;;;;0.30;0.30;;;10.90;99.90;;;;;;5020173;28;20044;-86
2023/11/20 02:58:23;;;;;;;0.30;0.30;;;10.90;99.90;;;;;;5044741;28;20037;-85
2023/11/20 03:00:49;;;;;;;0.20;0.20;;;10.90;99.90;;;;;;5026980;28;20037;-85
2023/11/20 03:03:15;;;;;;;0.30;0.30;;;10.90;99.90;;;;;;5043299;28;20140;-85
2023/11/20 03:05:45;;;;;;;0.35;0.35;;;10.90;99.90;;;;;;5039836;28;20078;-85
2023/11/20 03:08:11;;;;;;;0.65;0.65;;;10.90;99.90;;;;;;5022200;28;20131;-86
2023/11/20 03:10:39;;;;;;;0.30;0.30;;;10.90;99.90;;;;;;5025906;28;20041;-86
2023/11/20 03:13:04;;;;;;;0.30;0.30;;;10.90;99.90;;;;;;5049969;28;20501;-87
2023/11/20 03:15:30;;;;;;;0.28;0.28;;;10.90;99.90;;;;;;5049513;28;20069;-87
2023/11/20 03:17:56;;;;;;;0.30;0.30;;;10.90;99.90;;;;;;5021714;28;20037;-85
2023/11/20 03:20:21;;;;;;;0.20;0.20;;;10.90;99.90;;;;;;5038974;28;20666;-84
2023/11/20 03:22:47;;;;;;;0.30;0.30;;;10.90;99.90;;;;;;5009953;28;20045;-83
2023/11/20 03:25:13;;;;;;;0.20;0.20;;;10.90;99.90;;;;;;5045538;28;20036;-85
2023/11/20 03:27:40;;;;;;;0.40;0.40;;;10.90;99.90;;;;;;5039400;28;20102;-83
2023/11/20 03:30:06;;;;;;;0.30;0.30;;;10.90;99.90;;;;;;5046831;28;20045;-85
2023/11/20 03:32:32;;;;;;;;;;;10.90;99.90;;;;;;5041766;28;20134;-85
2023/11/20 03:34:58;;;;;;;0.30;0.30;;;10.90;99.90;;;;;;5047346;28;19947;-84
2023/11/20 03:37:24;;;;;;;0.68;0.68;;;10.90;99.90;;;;;;5027630;28;20033;-85
2023/11/20 03:39:49;;;;;;;0.22;0.22;;;10.90;99.90;;;;;;5038767;28;20045;-84
2023/11/20 03:42:15;;;;;;;0.20;0.20;;;10.90;99.90;;;;;;5040289;28;20041;-85
2023/11/20 03:44:41;;;;;;;0.30;0.30;;;10.90;99.90;;;;;;5049255;28;20049;-85
2023/11/20 03:47:06;;;;;;;0.30;0.30;;;10.90;99.90;;;;;;5042492;28;20094;-85
2023/11/20 03:49:32;;;;;;;0.30;0.30;;;10.90;99.90;;;;;;5039724;28;20052;-84
2023/11/20 03:51:58;;;;;;;0.40;0.40;;;10.90;99.90;;;;;;5017085;28;20063;-83
2023/11/20 03:54:23;;;;;;;0.32;0.32;;;10.90;99.90;;;;;;5022170;28;20134;-85
2023/11/20 03:56:49;;;;;;;0.20;0.20;;;11.00;99.90;;;;;;5041236;28;20049;-84
2023/11/20 03:59:15;;;;;;;0.35;0.35;;;11.00;99.90;;;;;;5042542;28;20471;-84
2023/11/20 04:01:41;;;;;;;0.43;0.43;;;11.00;99.90;;;;;;5041393;28;20045;-84
2023/11/20 04:04:08;;;;;;;0.30;0.30;;;11.00;99.90;;;;;;5024880;28;20445;-84
2023/11/20 04:06:34;;;;;;;0.22;0.22;;;11.00;99.90;;;;;;5051563;28;20071;-84
2023/11/20 04:09:00;;;;;;;0.40;0.40;;;11.00;99.90;;;;;;5017115;28;20472;-84
2023/11/20 04:11:25;;;;;;;0.30;0.30;;;11.00;99.90;;;;;;5028497;28;20047;-84
2023/11/20 04:13:51;;;;;;;0.30;0.30;;;11.00;99.90;;;;;;5033275;28;20167;-83
2023/11/20 04:16:17;;;;;;;0.25;0.25;;;11.00;99.90;;;;;;5029096;28;20375;-82
2023/11/20 04:18:45;;;;;;;0.40;0.40;;;11.00;99.90;;;;;;5027395;28;20048;-84
2023/11/20 04:21:11;;;;;;;0.20;0.20;;;11.00;99.90;;;;;;5025096;28;20972;-82
2023/11/20 04:23:37;;;;;;;;;;;11.00;99.90;;;;;;5021282;28;20099;-85
2023/11/20 04:26:02;;;;;;;0.30;0.30;;;11.00;99.90;;;;;;5037329;28;19921;-83
2023/11/20 04:28:30;;;;;;;0.50;0.50;;;11.00;99.90;;;;;;5033988;28;20045;-82
2023/11/20 04:30:58;;;;;;;0.30;0.30;;;11.00;99.90;;;;;;5023258;28;20046;-83
2023/11/20 04:33:25;;;;;;;0.40;0.40;;;11.00;99.90;;;;;;5038065;28;20037;-83
2023/11/20 04:35:51;;;;;;;0.32;0.32;;;11.00;99.90;;;;;;5040060;28;20099;-82
2023/11/20 04:38:17;;;;;;;1.10;1.10;;;11.00;99.90;;;;;;5012231;28;20042;-82
2023/11/20 04:40:43;;;;;;;0.20;0.20;;;11.00;99.90;;;;;;5040194;28;20475;-83
2023/11/20 04:43:09;;;;;;;0.20;0.20;;;11.00;99.90;;;;;;5046036;28;20086;-83
2023/11/20 04:45:34;;;;;;;0.20;0.20;;;11.00;99.90;;;;;;5038294;28;20491;-82
2023/11/20 04:48:00;;;;;;;0.65;0.52;;;11.00;99.90;;;;;;5018131;28;20040;-84
2023/11/20 04:50:26;;;;;;;0.30;0.30;;;11.00;99.90;;;;;;5007681;28;20442;-83
2023/11/20 04:52:51;;;;;;;1.45;1.35;;;11.10;99.90;;;;;;5035666;28;20048;-83
2023/11/20 04:55:17;;;;;;;0.45;0.45;;;11.00;99.90;;;;;;5035489;28;20037;-83
2023/11/20 04:57:46;;;;;;;0.30;0.30;;;11.00;99.90;;;;;;5017603;28;20120;-83
2023/11/20 05:00:12;;;;;;;0.30;0.30;;;11.00;99.90;;;;;;5013148;28;20037;-83
2023/11/20 05:02:38;;;;;;;0.30;0.30;;;11.00;99.90;;;;;;5029456;28;20072;-83
2023/11/20 05:05:07;;;;;;;0.40;0.40;;;11.00;99.90;;;;;;5017951;28;20446;-83
2023/11/20 05:07:36;;;;;;;1.95;1.85;;;11.00;99.90;;;;;;5018105;28;20052;-85
2023/11/20 05:10:02;;;;;;;0.20;0.20;;;11.00;99.90;;;;;;5008203;28;20041;-82
2023/11/20 05:12:28;;;;;;;0.52;0.52;;;11.00;99.90;;;;;;5023878;28;20368;-85
2023/11/20 05:14:53;;;;;;;0.30;0.30;;;11.00;99.90;;;;;;5023945;28;20064;-84
2023/11/20 05:17:20;;;;;;;0.43;0.43;;;10.90;99.90;;;;;;5010981;28;20132;-84
2023/11/20 05:19:46;;;;;;;0.73;0.73;;;11.00;99.90;;;;;;5038077;28;20076;-83
2023/11/20 05:22:17;;;;;;;0.40;0.40;;;11.00;99.90;;;;;;5035237;28;20069;-85
2023/11/20 05:24:42;;;;;;;0.30;0.30;;;10.90;99.90;;;;;;5050051;28;20044;-84
2023/11/20 05:27:09;;;;;;;0.30;0.30;;;11.00;99.90;;;;;;5031354;28;20521;-85
2023/11/20 05:29:39;;;;;;;0.30;0.30;;;10.90;99.90;;;;;;5028043;28;20041;-84
2023/11/20 05:32:05;;;;;;;0.30;0.30;;;10.90;99.90;;;;;;5020037;28;20041;-85
2023/11/20 05:34:33;;;;;;;0.30;0.30;;;10.90;99.90;;;;;;5044701;28;20037;-86
2023/11/20 05:36:59;;;;;;;0.40;0.40;;;10.90;99.90;;;;;;5028324;28;20029;-87
2023/11/20 05:39:25;;;;;;;0.28;0.28;;;10.90;99.90;;;;;;5027814;28;20040;-85
2023/11/20 05:41:52;;;;;;;0.20;0.20;;;10.90;99.90;;;;;;5017445;28;20045;-85
2023/11/20 05:44:19;;;;;;;0.38;0.38;;;10.90;99.90;;;;;;5009626;28;20044;-85
2023/11/20 05:46:44;;;;;;;1.20;0.30;;;10.90;99.90;;;;;;5014902;28;20045;-87
2023/11/20 05:49:10;;;;;;;0.30;0.30;;;10.80;99.90;;;;;;5030991;28;20041;-86
2023/11/20 05:51:36;;;;;;;0.30;0.30;;;10.80;99.90;;;;;;5021204;28;20090;-86
2023/11/20 05:54:01;;;;;;;0.30;0.30;;;10.80;99.90;;;;;;5019433;28;20045;-85
2023/11/20 05:56:30;;;;;;;0.30;0.30;;;10.80;99.90;;;;;;5004828;28;20044;-86
2023/11/20 05:58:57;;;;;;;0.28;0.28;;;10.80;99.90;;;;;;5019967;28;20065;-85
2023/11/20 06:01:22;;;;;;;0.30;0.30;;;10.80;99.90;;;;;;5017866;28;20479;-85
2023/11/20 06:03:48;;;;;;;0.30;0.30;;;10.70;99.90;;;;;;5026985;28;20037;-84
2023/11/20 06:06:21;;;;;;;0.40;0.40;;;10.80;99.90;;;;;;5025933;28;20469;-84
2023/11/20 06:08:48;;;;;;;0.30;0.30;;;10.80;99.90;;;;;;5044779;28;20048;-84
2023/11/20 06:11:23;;;;;;;0.30;0.30;;;10.80;99.90;;;;;;5027046;28;20117;-84
2023/11/20 06:13:48;;;;;;;0.30;0.30;;;10.80;99.90;;;;;;5026587;28;20226;-82
2023/11/20 06:16:15;;;;;;;0.20;0.20;;;10.70;99.90;;;;;;5027711;28;20083;-82
2023/11/20 06:18:41;;;;;;;0.30;0.30;;;10.70;99.90;;;;;;5043452;28;20061;-83
2023/11/20 06:21:07;;;;;;;0.40;0.40;;;10.70;99.90;;;;;;5032805;28;20076;-83
2023/11/20 06:23:32;;;;;;;0.30;0.30;;;10.70;99.90;;;;;;5022805;28;20402;-83
2023/11/20 06:25:58;;;;;;;0.20;0.20;;;10.70;99.90;;;;;;5043944;28;20059;-85
2023/11/20 06:28:24;;;;;;;0.30;0.30;;;10.70;99.90;;;;;;5024567;28;20053;-87
2023/11/20 06:30:53;;;;;;;0.30;0.30;;;10.60;99.90;;;;;;5018745;28;20658;-84
2023/11/20 06:33:20;;;;;;;0.20;0.20;;;10.70;99.90;;;;;;5017790;28;20399;-84
2023/11/20 06:35:46;;;;;;;0.30;0.30;;;10.60;99.90;;;;;;5030687;28;20426;-84
2023/11/20 06:38:12;;;;;;;0.60;0.60;;;10.60;99.90;;;;;;5043132;28;20037;-85
2023/11/20 06:40:39;;;;;;;0.40;0.40;;;10.60;99.90;;;;;;5040897;28;20045;-86
2023/11/20 06:43:06;;;;;;;0.30;0.30;;;10.60;99.90;;;;;;5027813;28;20041;-85
2023/11/20 06:45:32;;;;;;;0.30;0.30;;;10.60;99.90;;;;;;5024880;28;20045;-87
2023/11/20 06:47:58;;;;;;;0.30;0.30;;;10.60;99.90;;;;;;5025553;28;20509;-86
2023/11/20 06:50:25;;;;;;;0.20;0.20;;;10.60;99.90;;;;;;5021955;28;20578;-84
2023/11/20 06:52:57;;;;;;;0.25;0.25;;;10.50;99.90;;;;;;5039910;28;20064;-85
2023/11/20 06:55:23;;;;;;;0.63;0.63;;;10.50;99.90;;;;;;5010158;28;20247;-86
2023/11/20 06:57:49;;;;;;;0.30;0.30;;;10.60;99.90;;;;;;5029615;28;20056;-83
2023/11/20 07:00:15;;;;;;;0.20;0.20;;;10.50;99.90;;;;;;5048714;28;20566;-83
2023/11/20 07:02:42;;;;;;;0.30;0.30;;;10.50;99.90;;;;;;5035034;28;20059;-86
2023/11/20 07:05:17;;;;;;;0.30;0.30;;;10.50;99.90;;;;;;5021189;28;20049;-84
2023/11/20 07:07:52;;;;;;;0.22;0.22;;;10.50;99.90;;;;;;5034199;28;20103;-85
2023/11/20 07:10:25;;;;;;;0.30;0.30;;;10.50;99.90;;;;;;5040010;28;20037;-85
2023/11/20 07:12:53;;;;;;;0.30;0.30;;;10.50;99.90;;;;;;5045494;28;20584;-86
2023/11/20 07:15:23;;;;;;;0.20;0.20;;;10.50;99.90;;;;;;5030243;28;20630;-86
2023/11/20 07:17:50;;;;;;;0.40;0.40;;;10.50;99.90;;;;;;5027145;28;20259;-83
2023/11/20 07:20:17;;;;;;;0.20;0.20;;;10.50;99.90;;;;;;5025042;28;20041;-82
2023/11/20 07:22:44;;;;;;;0.20;0.20;;;10.50;99.90;;;;;;5011794;28;20127;-83
2023/11/20 07:25:11;;;;;;;0.40;0.40;;;10.40;99.90;;;;;;5018737;28;20056;-84
2023/11/20 07:27:37;;;;;;;0.50;0.50;;;10.40;99.90;;;;;;5031833;28;20122;-82
2023/11/20 07:30:06;;;;;;;;;;;10.40;99.90;;;;;;5048246;28;20041;-82
2023/11/20 07:32:33;;;;;;;0.38;0.38;;;10.40;99.90;;;;;;5030821;28;19976;-84
2023/11/20 07:34:59;;;;;;;0.20;0.20;;;10.40;99.90;;;;;;5003746;28;20486;-84
2023/11/20 07:37:24;;;;;;;0.20;0.20;;;10.30;99.90;;;;;;5016788;28;20099;-82
2023/11/20 07:39:50;;;;;;;0.40;0.40;;;10.40;99.90;;;;;;5050273;28;20041;-83
2023/11/20 07:42:16;;;;;;;0.30;0.30;;;10.30;99.90;;;;;;5027092;28;20502;-84
2023/11/20 07:44:42;;;;;;;0.30;0.30;;;10.40;99.90;;;;;;5024584;28;20483;-82
2023/11/20 07:47:07;;;;;;;0.30;0.30;;;10.40;99.90;;;;;;5005573;28;20038;-81
2023/11/20 07:49:33;;;;;;;0.20;0.20;;;10.40;99.90;;;;;;5001577;28;20041;-83
2023/11/20 07:51:59;;;;;;;0.30;0.30;;;10.40;99.90;;;;;;5046453;28;20053;-82
2023/11/20 07:54:26;;;;;;;0.30;0.30;;;10.30;99.90;;;;;;5005383;28;20087;-82
2023/11/20 07:56:52;;;;;;;0.20;0.20;;;10.30;99.90;;;;;;5029828;28;20041;-83
2023/11/20 07:59:18;;;;;;;1.25;1.15;;;10.30;99.90;;;;;;5026352;28;20157;-83
2023/11/20 08:01:44;;;;;;;0.35;0.35;;;10.30;99.90;;;;;;5046747;28;20037;-82
2023/11/20 08:04:11;;;;;;;0.30;0.30;;;10.30;99.90;;;;;;5033002;28;20044;-83
2023/11/20 08:06:37;;;;;;;0.30;0.30;;;10.30;99.90;;;;;;5027187;28;20045;-84
2023/11/20 08:09:03;;;;;;;0.30;0.30;;;10.30;99.90;;;;;;5040901;28;20071;-83
2023/11/20 08:11:29;;;;;;;0.22;0.22;;;10.30;99.90;;;;;;5039079;28;20037;-84
2023/11/20 08:13:54;;;;;;;0.30;0.30;;;10.20;99.90;;;;;;5017622;28;20049;-83
2023/11/20 08:16:20;;;;;;;0.20;0.20;;;10.20;99.90;;;;;;5016130;28;20089;-84
2023/11/20 08:18:46;;;;;;;0.30;0.30;;;10.20;99.90;;;;;;5029547;28;20059;-84
2023/11/20 08:21:12;;;;;;;0.43;0.40;;;10.20;99.90;;;;;;5021777;28;20038;-85
2023/11/20 08:23:37;;;;;;;0.30;0.30;;;10.20;99.90;;;;;;5027485;28;20041;-84
2023/11/20 08:26:05;;;;;;;0.30;0.30;;;10.20;99.90;;;;;;5011971;28;20073;-84
2023/11/20 08:28:30;;;;;;;0.30;0.30;;;10.20;99.90;;;;;;5037977;28;20045;-83
2023/11/20 08:30:56;;;;;;;0.35;0.35;;;10.20;99.90;;;;;;5016547;28;20037;-85
2023/11/20 08:33:22;;;;;;;0.30;0.30;;;10.20;99.90;;;;;;5030838;28;20112;-84
2023/11/20 08:35:48;;;;;;;0.30;0.30;;;10.20;99.90;;;;;;5004386;28;20037;-86
2023/11/20 08:38:13;;;;;;;1.33;1.33;;;10.20;99.90;;;;;;5018213;28;20047;-86
2023/11/20 08:40:40;;;;;;;0.30;0.30;;;10.20;99.90;;;;;;5017412;28;20506;-86
2023/11/20 08:43:06;;;;;;;0.30;0.30;;;10.20;99.90;;;;;;5029766;28;20060;-85
2023/11/20 08:45:32;;;;;;;0.32;0.32;;;10.20;99.90;;;;;;5031883;28;20041;-86
2023/11/20 08:47:58;;;;;;;0.30;0.30;;;10.20;99.90;;;;;;5014476;28;20032;-86
2023/11/20 08:50:25;;;;;;;0.40;0.40;;;10.20;99.90;;;;;;5020197;28;20474;-87
2023/11/20 08:52:52;;;;;;;0.20;0.20;;;10.30;99.90;;;;;;5019521;28;20123;-86
2023/11/20 08:55:18;;;;;;;0.50;0.50;;;10.20;99.90;;;;;;5000767;28;20041;-87
2023/11/20 08:57:44;;;;;;;;;;;10.30;99.90;;;;;;5019827;28;20045;-85
2023/11/20 09:00:14;;;;;;;0.30;0.30;;;10.30;99.90;;;;;;5051662;28;19920;-85
2023/11/20 09:02:44;;;;;;;0.35;0.35;;;10.30;99.90;;;;;;5027934;28;20053;-86
2023/11/20 09:05:13;;;;;;;0.40;0.40;;;10.30;99.90;;;;;;4999494;28;20138;-86
2023/11/20 09:07:42;;;;;;;0.43;0.43;;;10.30;99.90;;;;;;5028352;28;20041;-85
2023/11/20 09:10:10;;;;;;;0.35;0.35;;;10.30;99.90;;;;;;5015766;28;20041;-86
2023/11/20 09:12:36;;;;;;;0.30;0.30;;;10.30;99.90;;;;;;5008031;28;20042;-87
2023/11/20 09:15:04;;;;;;;0.40;0.40;;;10.30;99.90;;;;;;5022772;28;20130;-83
2023/11/20 09:17:31;;;;;;;0.30;0.30;;;10.30;99.90;;;;;;5022706;28;20451;-85
2023/11/20 09:19:57;;;;;;;;;;;10.40;99.90;;;;;;5022931;28;20129;-87
2023/11/20 09:22:25;;;;;;;1.33;1.23;;;10.40;99.90;;;;;;5028808;28;19921;-85
2023/11/20 09:24:51;;;;;;;0.25;0.25;;;10.40;99.90;;;;;;5025974;28;20283;-86
2023/11/20 09:27:20;;;;;;;;;;;10.40;99.90;;;;;;5040639;28;20045;-86
2023/11/20 09:29:45;;;;;;;2.45;2.25;;;10.40;99.90;;;;;;5029775;28;20358;-86
2023/11/20 09:32:11;;;;;;;0.30;0.30;;;10.40;99.90;;;;;;5014596;28;20045;-86
2023/11/20 09:34:40;;;;;;;0.30;0.30;;;10.40;99.90;;;;;;5022285;28;20037;-86
2023/11/20 09:37:06;;;;;;;1.52;0.57;;;10.40;99.90;;;;;;5014091;28;20519;-86
2023/11/20 09:39:32;;;;;;;0.20;0.20;;;10.40;99.90;;;;;;5018396;28;20121;-85
2023/11/20 09:41:59;;;;;;;0.20;0.20;;;10.40;99.90;;;;;;5026558;28;20051;-86
2023/11/20 09:44:38;;;;;;;0.50;0.50;;;10.50;99.90;;;;;;5019418;28;20516;-85
2023/11/20 09:47:12;;;;;;;0.40;0.40;;;10.40;99.90;;;;;;5027989;28;20048;-85
2023/11/20 09:49:41;;;;;;;3.63;0.30;;;10.40;99.90;;;;;;5017291;28;20129;-86
2023/11/20 09:52:08;;;;;;;1.75;1.65;;;10.40;99.90;;;;;;5042815;28;20045;-85
2023/11/20 09:54:43;;;;;;;0.45;0.45;;;10.40;99.90;;;;;;5028941;28;20025;-86
2023/11/20 09:57:09;;;;;;;0.30;0.30;;;10.40;99.90;;;;;;5041441;28;20519;-87
2023/11/20 09:59:38;;;;;;;2.25;1.25;;;10.40;99.90;;;;;;5016862;28;20036;-87
2023/11/20 10:02:05;;;;;;;0.30;0.30;;;10.40;99.90;;;;;;5021293;28;20033;-86
2023/11/20 10:04:33;;;;;;;0.30;0.30;;;10.40;99.90;;;;;;5026013;28;20045;-85
2023/11/20 10:07:07;;;;;;;1.30;1.30;;;10.40;99.90;;;;;;5036590;28;20364;-86
2023/11/20 10:09:33;;;;;;;0.20;0.20;;;10.40;99.90;;;;;;5030611;28;20482;-86
2023/11/20 10:12:02;;;;;;;;;;;10.40;99.90;;;;;;5034558;28;20045;-87
2023/11/20 10:14:28;;;;;;;0.40;0.40;;;10.40;99.90;;;;;;5022231;28;19921;-87
2023/11/20 10:16:54;;;;;;;;;;;10.50;99.90;;;;;;5040335;28;20044;-86
2023/11/20 10:19:20;;;;;;;0.40;0.40;;;10.50;99.90;;;;;;5018140;28;19925;-87
2023/11/20 10:21:51;;;;;;;0.30;0.30;;;10.40;99.90;;;;;;5030276;28;20049;-86
2023/11/20 10:24:17;;;;;;;0.30;0.30;;;10.50;99.90;;;;;;5034777;28;20494;-87
2023/11/20 10:26:46;;;;;;;0.30;0.30;;;10.50;99.90;;;;;;5012443;28;20068;-86
2023/11/20 10:29:12;;;;;;;0.30;0.30;;;10.50;99.90;;;;;;5019110;28;20495;-86
2023/11/20 10:31:45;;;;;;;1.00;1.00;;;10.50;99.90;;;;;;5030125;28;20056;-87
2023/11/20 10:34:11;;;;;;;0.68;0.68;;;10.50;99.90;;;;;;5036262;28;20037;-85
2023/11/20 10:36:38;;;;;;;0.43;0.43;;;10.50;99.90;;;;;;5025741;28;20037;-85
2023/11/20 10:39:05;;;;;;;0.43;0.43;;;10.40;99.90;;;;;;5034349;28;20033;-86
2023/11/20 10:41:32;;;;;;;0.20;0.20;;;10.40;99.90;;;;;;5034178;28;20123;-86
2023/11/20 10:43:59;;;;;;;0.50;0.50;;;10.40;99.90;;;;;;5037899;28;20390;-86
2023/11/20 10:46:28;;;;;;;0.28;0.28;;;10.40;99.90;;;;;;5025155;28;20037;-87
2023/11/20 10:48:55;;;;;;;1.45;1.20;;;10.40;99.90;;;;;;5021273;28;20446;-86
2023/11/20 10:51:23;;;;;;;0.40;0.40;;;10.40;99.90;;;;;;5010334;28;20053;-86
2023/11/20 10:54:02;;;;;;;0.20;0.20;;;10.50;99.90;;;;;;5033770;28;20080;-86
2023/11/20 10:56:38;;;;;;;0.57;0.57;;;10.50;99.90;;;;;;5046637;28;20090;-87
2023/11/20 10:59:05;;;;;;;0.30;0.30;;;10.50;99.90;;;;;;5048912;28;20178;-87
2023/11/20 11:01:32;;;;;;;0.30;0.30;;;10.50;99.90;;;;;;5020813;28;20053;-85
2023/11/20 11:03:58;;;;;;;0.35;0.35;;;10.60;99.90;;;;;;5018988;28;20037;-86
2023/11/20 11:06:24;;;;;;;0.55;0.55;;;10.60;99.90;;;;;;5017457;28;20049;-87
2023/11/20 11:08:51;;;;;;;0.30;0.30;;;10.70;99.90;;;;;;5021472;28;20069;-87
2023/11/20 11:11:20;;;;;;;0.32;0.32;;;10.70;99.90;;;;;;5020661;28;20045;-85
2023/11/20 11:13:49;;;;;;;0.32;0.32;;;10.70;99.90;;;;;;5029277;28;20064;-86
2023/11/20 11:16:39;;;;;;;0.40;0.40;;;10.80;99.90;;;;;;5019952;28;20075;-85
2023/11/20 11:19:13;;;;;;;0.40;0.40;;;10.80;99.90;;;;;;5036305;28;20427;-87
2023/11/20 11:21:52;;;;;;;0.30;0.30;;;10.90;99.90;;;;;;5021634;28;20045;-86
2023/11/20 11:24:20;;;;;;;0.60;0.60;;;10.90;99.90;;;;;;5033221;28;20046;-86
2023/11/20 11:26:55;;;;;;;0.20;0.20;;;11.00;99.90;;;;;;5023732;28;20041;-84
2023/11/20 11:29:38;;;;;;;13.05;1.38;;;11.00;99.90;;;;;;5042672;28;20395;-86
2023/11/20 11:32:04;;;;;;;0.38;0.30;;;11.10;99.90;;;;;;5027207;28;20048;-85
2023/11/20 11:34:32;;;;;;;;;;;11.10;99.90;;;;;;5023895;28;20467;-85
2023/11/20 11:37:08;;;;;;;0.28;0.28;;;11.10;99.90;;;;;;5032567;28;20379;-87
2023/11/20 11:39:44;;;;;;;0.40;0.40;;;11.20;99.90;;;;;;5021377;28;20186;-87
2023/11/20 11:42:19;;;;;;;0.20;0.20;;;11.20;99.90;;;;;;5048468;28;20044;-87
2023/11/20 11:45:03;;;;;;;0.40;0.40;;;11.20;99.90;;;;;;5035709;28;20116;-87
2023/11/20 11:47:29;;;;;;;0.40;0.40;;;11.20;99.90;;;;;;5038495;28;20052;-86
2023/11/20 11:49:56;;;;;;;0.20;0.20;;;11.30;99.90;;;;;;5021079;28;20041;-87
2023/11/20 11:52:27;;;;;;;0.20;0.20;;;11.20;99.90;;;;;;5027925;28;20038;-89
2023/11/20 11:55:15;;;;;;;0.43;0.43;;;11.20;99.90;;;;;;5045480;28;20057;-85
2023/11/20 11:57:41;;;;;;;0.50;0.50;;;11.20;99.90;;;;;;5041143;28;20077;-86
2023/11/20 12:00:11;;;;;;;0.30;0.30;;;11.20;99.90;;;;;;5020450;28;20032;-87
2023/11/20 12:03:11;;;;;;;0.30;0.30;;;11.20;99.90;;;;;;5040382;28;20037;-86
2023/11/20 12:05:59;;;;;;;0.30;0.30;;;11.20;99.90;;;;;;5006301;28;20399;-87
2023/11/20 12:08:33;;;;;;;0.30;0.30;;;11.20;99.90;;;;;;5025153;28;20033;-88
2023/11/20 12:11:02;;;;;;;0.28;0.28;;;11.20;99.90;;;;;;5046633;28;20095;-86
2023/11/20 12:13:27;;;;;;;0.98;0.70;;;11.20;99.90;;;;;;5043157;28;20041;-87
2023/11/20 12:16:06;;;;;;;0.40;0.40;;;11.30;99.90;;;;;;5042115;28;20563;-87
2023/11/20 12:18:34;;;;;;;0.40;0.40;;;11.20;99.90;;;;;;5037454;28;20046;-88
2023/11/20 12:21:10;;;;;;;0.30;0.30;;;11.20;99.90;;;;;;5054739;28;20056;-87
2023/11/20 12:23:41;;;;;;;0.30;0.30;;;11.30;99.90;;;;;;5023923;28;20044;-89
2023/11/20 12:26:12;;;;;;;0.30;0.30;;;11.30;99.90;;;;;;5037778;28;20076;-89
2023/11/20 12:28:40;;;;;;;0.60;0.60;;;11.30;99.90;;;;;;5025479;28;20033;-87
2023/11/20 12:31:07;;;;;;;0.65;0.47;;;11.30;99.90;;;;;;5047722;28;20052;-87
2023/11/20 12:33:35;;;;;;;1.10;1.00;;;11.20;99.90;;;;;;5027309;28;20033;-87
2023/11/20 12:36:01;;;;;;;1.85;1.75;;;11.20;99.90;;;;;;5022204;28;20056;-86
2023/11/20 12:38:30;;;;;;;0.20;0.20;;;11.20;99.90;;;;;;5016695;28;20391;-87
2023/11/20 12:40:59;;;;;;;0.30;0.30;;;11.30;99.90;;;;;;5028395;28;20072;-87
2023/11/20 12:43:25;;;;;;;0.30;0.30;;;11.30;99.90;;;;;;5017683;28;20042;-88
2023/11/20 12:45:54;;;;;;;0.30;0.30;;;11.40;99.90;;;;;;5001737;28;20131;-87
2023/11/20 12:48:20;;;;;;;0.20;0.20;;;11.40;99.90;;;;;;5034552;28;20033;-85
2023/11/20 12:50:49;;;;;;;0.30;0.30;;;11.40;99.90;;;;;;5026051;28;20091;-86
2023/11/20 12:53:20;;;;;;;0.40;0.40;;;11.40;99.90;;;;;;5002611;28;20482;-85